ENSD/SDN METAR and TAF weather

Enter ICAO airport designator
Station Type Date Time Source
ENSD METAR 2019/06/26 15:50 UTC NOAA

ENSD 261550Z 31011KT 9999 FEW040 SCT045 15/08 Q1022 RMK WIND 1138FT 28010KT


Station Type Date Time Source
ENSD Decoded METAR 2019/06/26 15:50 UTC NOAA

Sandane / Anda, Norway (ENSD) 61-50N 006-07E 60M
Jun 26, 2019 - 11:50 AM EDT / 2019.06.26 1550 UTC
Wind: from the NW (310 degrees) at 13 MPH (11 KT):0
Visibility: greater than 7 mile(s):0
Sky conditions: partly cloudy
Temperature: 59 F (15 C)
Dew Point: 46 F (8 C)
Relative Humidity: 62%
Pressure (altimeter): 30.18 in. Hg (1022 hPa)
ob: ENSD 261550Z 31011KT 9999 FEW040 SCT045 15/08 Q1022 RMK WIND 1138FT 28010KT
cycle: 16

Station Type Date Time Source
ENSD TAF UTC NOAA

Error!

Example: see airport list